Time;durP1;ratioP1;P1;durP2;ratioP2;P2;SDS_P1;SDS_P2;PMS_P1;PMS_P2;Temp;Humidity;BMP_temperature;BMP_pressure;BME280_temperature;BME280_humidity;BME280_pressure;Samples;Min_cycle;Max_cycle;Signal;HPM_P1;HPM_P2
2022/07/12 00:00:16;;;;;;;10.93;3.70;;;16.60;1.00;;;;;;6324563;22;20414;-79
2022/07/12 00:02:42;;;;;;;10.83;3.50;;;16.60;1.00;;;;;;6322785;22;20430;-79
2022/07/12 00:05:14;;;;;;;7.57;2.93;;;16.50;1.00;;;;;;6324163;22;20418;-79
2022/07/12 00:07:41;;;;;;;8.17;3.33;;;16.50;1.00;;;;;;6324589;22;20416;-80
2022/07/12 00:10:10;;;;;;;7.77;3.10;;;16.40;1.00;;;;;;6327351;22;20425;-81
2022/07/12 00:12:38;;;;;;;7.70;2.70;;;16.30;1.00;;;;;;6325019;22;20394;-80
2022/07/12 00:15:06;;;;;;;8.53;3.27;;;16.30;1.00;;;;;;6324947;22;20430;-83
2022/07/12 00:17:38;;;;;;;8.20;3.53;;;16.30;1.00;;;;;;6324136;22;20405;-81
2022/07/12 00:20:06;;;;;;;8.50;3.30;;;16.30;1.00;;;;;;6324858;22;20423;-82
2022/07/12 00:22:35;;;;;;;6.63;2.93;;;16.30;1.00;;;;;;6323559;22;20505;-82
2022/07/12 00:25:02;;;;;;;10.77;3.43;;;16.20;1.00;;;;;;6322234;22;20414;-81
2022/07/12 00:27:39;;;;;;;8.40;3.30;;;16.20;1.00;;;;;;6325981;22;20422;-82
2022/07/12 00:30:07;;;;;;;8.07;3.50;;;16.20;1.00;;;;;;6325137;22;20933;-80
2022/07/12 00:32:36;;;;;;;8.27;3.27;;;16.10;1.00;;;;;;6322555;22;20433;-80
2022/07/12 00:35:03;;;;;;;8.73;3.17;;;16.10;1.00;;;;;;6325125;22;20441;-82
2022/07/12 00:37:34;;;;;;;8.40;4.23;;;16.00;1.00;;;;;;6325725;22;20913;-84
2022/07/12 00:40:01;;;;;;;8.77;3.60;;;16.00;1.00;;;;;;6325504;22;20437;-81
2022/07/12 00:42:32;;;;;;;9.40;3.73;;;16.00;1.00;;;;;;6325324;22;21130;-82
2022/07/12 00:45:00;;;;;;;8.40;3.33;;;16.00;1.00;;;;;;6304914;22;20398;-80
2022/07/12 00:47:37;;;;;;;9.83;3.90;;;15.90;1.00;;;;;;6323923;22;20420;-83
2022/07/12 00:50:06;;;;;;;9.47;3.90;;;15.90;1.00;;;;;;6323306;22;20505;-79
2022/07/12 00:52:36;;;;;;;9.17;4.30;;;15.90;1.00;;;;;;6321598;22;21150;-78
2022/07/12 00:55:04;;;;;;;9.27;4.13;;;15.90;1.00;;;;;;6323826;22;20462;-80
2022/07/12 00:57:36;;;;;;;8.47;3.50;;;15.90;1.00;;;;;;6321552;22;20506;-82
2022/07/12 01:00:05;;;;;;;11.63;4.50;;;15.90;1.00;;;;;;6324524;22;20426;-79
2022/07/12 01:02:36;;;;;;;8.63;3.67;;;15.90;1.00;;;;;;6317634;22;20441;-81
2022/07/12 01:05:05;;;;;;;7.90;3.40;;;15.90;1.00;;;;;;6322282;22;20418;-80
2022/07/12 01:07:37;;;;;;;9.17;4.17;;;15.80;1.00;;;;;;6321632;22;20541;-79
2022/07/12 01:10:05;;;;;;;9.10;3.70;;;15.80;1.00;;;;;;6323688;22;20410;-82
2022/07/12 01:12:40;;;;;;;8.63;3.83;;;15.70;1.00;;;;;;6323774;22;20449;-82
2022/07/12 01:15:12;;;;;;;8.53;3.43;;;15.70;1.00;;;;;;6325187;22;20895;-81
2022/07/12 01:17:41;;;;;;;7.87;3.33;;;15.60;1.00;;;;;;6323337;22;20429;-79
2022/07/12 01:20:14;;;;;;;8.10;3.20;;;15.60;1.00;;;;;;6323153;22;20446;-79
2022/07/12 01:22:45;;;;;;;9.27;3.00;;;15.60;1.00;;;;;;6322319;22;20438;-80
2022/07/12 01:25:17;;;;;;;7.63;3.27;;;15.50;1.00;;;;;;6324609;22;20498;-83
2022/07/12 01:27:44;;;;;;;8.00;2.97;;;15.50;1.00;;;;;;6324318;22;20422;-81
2022/07/12 01:30:16;;;;;;;8.30;2.90;;;15.50;1.00;;;;;;6324935;22;20438;-80
2022/07/12 01:32:43;;;;;;;9.00;3.07;;;15.50;1.00;;;;;;6324535;22;20408;-80
2022/07/12 01:35:17;;;;;;;7.83;2.80;;;15.50;1.00;;;;;;6323372;22;20417;-81
2022/07/12 01:37:45;;;;;;;7.63;3.30;;;15.50;1.00;;;;;;6324846;22;20822;-82
2022/07/12 01:40:17;;;;;;;8.77;2.97;;;15.40;1.00;;;;;;6326545;22;20413;-80
2022/07/12 01:42:44;;;;;;;7.80;3.00;;;15.40;1.00;;;;;;6322968;22;20453;-80
2022/07/12 01:45:16;;;;;;;7.00;2.87;;;15.40;1.00;;;;;;6325124;22;20401;-82
2022/07/12 01:47:43;;;;;;;9.10;3.10;;;15.30;1.00;;;;;;6323609;22;20464;-83
2022/07/12 01:50:15;;;;;;;9.50;3.70;;;15.30;1.00;;;;;;6322545;22;20413;-81
2022/07/12 01:52:43;;;;;;;8.30;2.97;;;15.20;1.00;;;;;;6327711;22;20424;-83
2022/07/12 01:55:15;;;;;;;7.67;3.00;;;15.20;1.00;;;;;;6325499;22;20393;-83
2022/07/12 01:57:44;;;;;;;8.97;2.87;;;15.20;1.00;;;;;;6324864;22;20399;-82
2022/07/12 02:00:16;;;;;;;7.90;2.60;;;15.20;1.00;;;;;;6323835;22;20407;-81
2022/07/12 02:02:46;;;;;;;7.00;2.70;;;15.10;1.00;;;;;;6322304;22;20430;-80
2022/07/12 02:05:16;;;;;;;7.90;2.50;;;15.10;1.00;;;;;;6329729;22;20387;-83
2022/07/12 02:07:43;;;;;;;8.47;2.57;;;15.20;1.00;;;;;;6325374;22;20848;-82
2022/07/12 02:10:17;;;;;;;7.27;2.97;;;15.20;1.00;;;;;;6328134;22;20422;-83
2022/07/12 02:12:45;;;;;;;7.73;2.90;;;15.20;1.00;;;;;;6328896;22;20425;-84
2022/07/12 02:15:18;;;;;;;10.20;2.53;;;15.10;1.00;;;;;;6328688;22;20428;-84
2022/07/12 02:17:47;;;;;;;8.60;2.77;;;15.10;1.00;;;;;;6330109;22;20389;-83
2022/07/12 02:20:14;;;;;;;7.33;2.37;;;15.10;1.00;;;;;;6330288;22;20458;-83
2022/07/12 02:22:50;;;;;;;9.10;2.17;;;15.10;1.00;;;;;;6327255;22;21254;-83
2022/07/12 02:25:17;;;;;;;9.23;2.50;;;15.10;1.00;;;;;;6329534;22;20414;-83
2022/07/12 02:27:45;;;;;;;8.70;2.50;;;15.00;1.00;;;;;;6327166;22;20453;-83
2022/07/12 02:30:16;;;;;;;9.30;2.90;;;15.00;1.00;;;;;;6326691;22;20394;-84
2022/07/12 02:32:46;;;;;;;7.63;2.60;;;15.00;1.00;;;;;;6325353;22;20611;-81
2022/07/12 02:35:22;;;;;;;7.40;2.53;;;15.00;1.00;;;;;;6328696;22;20390;-84
2022/07/12 02:37:49;;;;;;;7.67;2.43;;;15.00;1.00;;;;;;6326884;22;20402;-80
2022/07/12 02:43:06;;;;;;;8.07;2.30;;;14.90;1.00;;;;;;6325813;22;20402;-81
2022/07/12 02:45:33;;;;;;;7.70;2.30;;;14.90;1.00;;;;;;6323641;22;20432;-80
2022/07/12 02:48:04;;;;;;;7.10;2.37;;;14.90;1.00;;;;;;6325909;22;20400;-84
2022/07/12 02:50:33;;;;;;;9.43;3.03;;;14.90;1.00;;;;;;6325050;22;20386;-79
2022/07/12 02:53:04;;;;;;;10.40;3.23;;;14.90;1.00;;;;;;6324928;22;20453;-84
2022/07/12 02:55:31;;;;;;;9.33;2.97;;;14.90;1.00;;;;;;6323192;22;20421;-81
2022/07/12 02:57:58;;;;;;;8.47;2.80;;;14.80;1.00;;;;;;6325112;22;20568;-79
2022/07/12 03:00:28;;;;;;;8.90;2.57;;;14.80;1.00;;;;;;6323393;22;20398;-80
2022/07/12 03:02:55;;;;;;;8.33;2.57;;;14.80;1.00;;;;;;6324981;22;20425;-79
2022/07/12 03:05:26;;;;;;;9.33;3.20;;;14.80;1.00;;;;;;6324119;22;20430;-83
2022/07/12 03:07:52;;;;;;;10.70;3.30;;;14.80;1.00;;;;;;6325747;22;20401;-84
2022/07/12 03:10:25;;;;;;;8.97;3.07;;;14.80;1.00;;;;;;6326373;22;20480;-85
2022/07/12 03:12:52;;;;;;;11.37;3.23;;;14.80;1.00;;;;;;6326181;22;20449;-82
2022/07/12 03:15:19;;;;;;;8.80;2.63;;;14.80;1.00;;;;;;6325993;22;20426;-83
2022/07/12 03:17:50;;;;;;;7.80;2.80;;;14.80;1.00;;;;;;6324420;22;21238;-81
2022/07/12 03:20:17;;;;;;;8.63;2.53;;;14.90;1.00;;;;;;6324544;22;21105;-80
2022/07/12 03:22:48;;;;;;;8.10;3.07;;;14.90;1.00;;;;;;6324166;22;20424;-81
2022/07/12 03:25:16;;;;;;;9.97;3.13;;;14.90;1.00;;;;;;6309830;22;20407;-81
2022/07/12 03:27:47;;;;;;;9.93;3.23;;;14.80;1.00;;;;;;6327891;22;20398;-84
2022/07/12 03:30:14;;;;;;;8.40;2.90;;;14.80;1.00;;;;;;6326865;22;20490;-79
2022/07/12 03:32:45;;;;;;;8.37;3.10;;;14.80;1.00;;;;;;6322593;22;20499;-79
2022/07/12 03:35:14;;;;;;;11.00;3.70;;;14.80;1.00;;;;;;6325338;22;20855;-79
2022/07/12 03:37:45;;;;;;;7.70;2.90;;;14.80;1.00;;;;;;6317229;22;21165;-78
2022/07/12 03:40:15;;;;;;;8.13;3.60;;;14.90;1.00;;;;;;6316922;22;20438;-79
2022/07/12 03:42:42;;;;;;;8.67;3.23;;;14.90;1.00;;;;;;6289196;22;20471;-79
2022/07/12 03:45:10;;;;;;;8.47;3.00;;;15.00;1.00;;;;;;6317510;22;20824;-80
2022/07/12 03:47:37;;;;;;;9.23;3.30;;;15.00;1.00;;;;;;6318294;22;20418;-79
2022/07/12 03:50:05;;;;;;;11.03;3.93;;;15.10;1.00;;;;;;6320019;22;20398;-82
2022/07/12 03:52:34;;;;;;;7.90;2.83;;;15.20;1.00;;;;;;6314125;22;20434;-83
2022/07/12 03:55:06;;;;;;;7.20;2.90;;;15.20;1.00;;;;;;6328502;22;20413;-85
2022/07/12 03:57:33;;;;;;;7.60;3.03;;;15.30;1.00;;;;;;6324041;22;20430;-80
2022/07/12 04:00:05;;;;;;;6.70;3.00;;;15.30;1.00;;;;;;6323788;22;20391;-81
2022/07/12 04:02:32;;;;;;;10.43;3.07;;;15.30;1.00;;;;;;6321550;22;20517;-82
2022/07/12 04:04:59;;;;;;;7.73;2.77;;;15.40;1.00;;;;;;6306900;22;20533;-81
2022/07/12 04:07:26;;;;;;;8.80;2.93;;;15.40;1.00;;;;;;6323286;22;20401;-84
2022/07/12 04:09:55;;;;;;;6.60;1.87;;;15.50;1.00;;;;;;6327933;22;20438;-84
2022/07/12 04:12:26;;;;;;;7.03;2.90;;;15.50;1.00;;;;;;6325758;22;20417;-79
2022/07/12 04:14:53;;;;;;;9.93;4.70;;;15.50;1.00;;;;;;6325169;22;20791;-80
2022/07/12 04:17:26;;;;;;;9.80;3.30;;;15.60;1.00;;;;;;6325858;22;20454;-81
2022/07/12 04:19:53;;;;;;;10.60;2.77;;;15.60;1.00;;;;;;6323194;22;20390;-81
2022/07/12 04:22:24;;;;;;;8.77;3.43;;;15.60;1.00;;;;;;6325627;22;20593;-81
2022/07/12 04:24:51;;;;;;;8.63;2.80;;;15.60;1.00;;;;;;6325004;22;20406;-85
2022/07/12 04:27:23;;;;;;;7.97;2.50;;;15.70;1.00;;;;;;6327078;22;20468;-81
2022/07/12 04:29:50;;;;;;;8.50;2.67;;;15.70;1.00;;;;;;6324082;22;20790;-80
2022/07/12 04:32:16;;;;;;;9.93;3.33;;;15.80;1.00;;;;;;6323955;22;20470;-81
2022/07/12 04:34:46;;;;;;;8.23;2.50;;;15.80;1.00;;;;;;6321888;22;20401;-79
2022/07/12 04:37:13;;;;;;;9.73;3.40;;;15.90;1.00;;;;;;6326865;22;20806;-83
2022/07/12 04:39:50;;;;;;;6.13;2.03;;;15.90;1.00;;;;;;6323669;22;20474;-79
2022/07/12 04:42:24;;;;;;;10.70;7.03;;;16.00;1.00;;;;;;6319372;22;20761;-80
2022/07/12 04:44:52;;;;;;;7.20;2.33;;;16.00;1.00;;;;;;6322201;22;20417;-81
2022/07/12 04:47:19;;;;;;;7.50;2.50;;;16.00;1.00;;;;;;6329164;22;20450;-81
2022/07/12 04:49:46;;;;;;;10.03;2.17;;;16.10;1.00;;;;;;6324188;22;20402;-82
2022/07/12 04:52:13;;;;;;;10.07;3.00;;;16.20;1.00;;;;;;6323594;22;20456;-85
2022/07/12 04:54:40;;;;;;;10.07;3.00;;;16.20;1.00;;;;;;6322936;22;20493;-84
2022/07/12 04:57:08;;;;;;;6.90;2.33;;;16.20;1.00;;;;;;6325011;22;20386;-84
2022/07/12 04:59:38;;;;;;;7.37;2.20;;;16.30;1.00;;;;;;6327362;22;20398;-82
2022/07/12 05:02:07;;;;;;;8.57;2.20;;;16.30;1.00;;;;;;6327938;22;20849;-80
2022/07/12 05:04:36;;;;;;;7.00;1.60;;;16.40;1.00;;;;;;6324711;22;20446;-83
2022/07/12 05:07:03;;;;;;;9.93;3.37;;;16.40;1.00;;;;;;6328724;22;20418;-85
2022/07/12 05:09:34;;;;;;;7.30;1.90;;;16.50;1.00;;;;;;6325152;22;20437;-81
2022/07/12 05:12:08;;;;;;;8.80;3.00;;;16.50;1.00;;;;;;6322637;22;20430;-84
2022/07/12 05:14:38;;;;;;;7.77;2.57;;;16.60;1.00;;;;;;6327623;22;20374;-83
2022/07/12 05:17:07;;;;;;;7.77;1.80;;;16.70;1.00;;;;;;6330006;22;20422;-85
2022/07/12 05:19:34;;;;;;;6.47;2.07;;;16.80;1.00;;;;;;6326196;22;20839;-79
2022/07/12 05:22:06;;;;;;;6.90;2.00;;;16.80;1.00;;;;;;6323747;22;20519;-82
2022/07/12 05:24:33;;;;;;;7.00;1.80;;;16.90;1.00;;;;;;6325830;22;20430;-83
2022/07/12 05:27:00;;;;;;;6.57;1.60;;;17.00;1.00;;;;;;6325717;22;20445;-84
2022/07/12 05:29:28;;;;;;;6.10;1.80;;;17.10;1.00;;;;;;6328288;22;20390;-81
2022/07/12 05:31:57;;;;;;;5.90;1.97;;;17.20;1.00;;;;;;6327785;22;20422;-84
2022/07/12 05:34:27;;;;;;;6.67;1.77;;;17.20;1.00;;;;;;6325157;22;20413;-79
2022/07/12 05:36:54;;;;;;;8.10;2.60;;;17.30;1.00;;;;;;6323950;22;20382;-81
2022/07/12 05:39:25;;;;;;;5.20;1.13;;;17.40;1.00;;;;;;6324721;22;20517;-81
2022/07/12 05:41:52;;;;;;;6.60;1.37;;;17.50;1.00;;;;;;6326266;22;20426;-81
2022/07/12 05:44:22;;;;;;;7.43;2.13;;;17.60;1.00;;;;;;6324354;22;20464;-79
2022/07/12 05:46:52;;;;;;;7.00;2.20;;;17.80;1.00;;;;;;6321059;22;20453;-84
2022/07/12 05:49:21;;;;;;;6.83;1.97;;;17.80;1.00;;;;;;6323957;22;20418;-80
2022/07/12 05:54:33;;;;;;;5.50;1.40;;;18.10;1.00;;;;;;6324765;22;20421;-80
2022/07/12 05:57:01;;;;;;;6.90;1.40;;;18.30;1.00;;;;;;6319339;22;20476;-78
2022/07/12 05:59:28;;;;;;;10.93;3.93;;;18.40;1.00;;;;;;6323642;22;20401;-81
2022/07/12 06:01:57;;;;;;;6.27;1.83;;;18.50;1.00;;;;;;6325269;22;20414;-81
2022/07/12 06:04:26;;;;;;;6.10;1.90;;;18.70;1.00;;;;;;6328743;22;20388;-84
2022/07/12 06:06:57;;;;;;;8.00;1.70;;;18.90;1.00;;;;;;6324499;22;20489;-80
2022/07/12 06:09:28;;;;;;;5.70;1.50;;;19.00;1.00;;;;;;6323916;22;20477;-80
2022/07/12 06:11:57;;;;;;;5.97;1.73;;;19.10;1.00;;;;;;6325033;22;20382;-84
2022/07/12 06:14:27;;;;;;;8.40;2.30;;;19.20;1.00;;;;;;6328155;22;20412;-84
2022/07/12 06:16:57;;;;;;;5.20;1.50;;;19.30;1.00;;;;;;6328005;22;20402;-85
2022/07/12 06:19:28;;;;;;;7.43;1.90;;;19.40;1.00;;;;;;6327596;22;20405;-85
2022/07/12 06:21:55;;;;;;;6.90;1.47;;;19.50;1.00;;;;;;6327214;22;21166;-85
2022/07/12 06:24:26;;;;;;;6.03;1.60;;;19.60;1.00;;;;;;6324839;22;20470;-80
2022/07/12 06:26:53;;;;;;;5.60;1.50;;;19.70;1.00;;;;;;6322728;22;20410;-81
2022/07/12 06:29:25;;;;;;;6.97;1.33;;;19.80;1.00;;;;;;6323872;22;20414;-81
2022/07/12 06:31:53;;;;;;;4.70;1.50;;;19.90;1.00;;;;;;6326727;22;20426;-81
2022/07/12 06:34:20;;;;;;;6.23;1.60;;;20.10;1.00;;;;;;6324975;22;20370;-78
2022/07/12 06:36:51;;;;;;;4.63;1.50;;;20.20;1.00;;;;;;6321647;22;20417;-80
2022/07/12 06:39:18;;;;;;;5.83;1.53;;;20.20;1.00;;;;;;6324464;22;20425;-82
2022/07/12 06:41:47;;;;;;;4.77;1.60;;;20.10;1.00;;;;;;6322044;22;20433;-80
2022/07/12 06:44:14;;;;;;;5.63;1.40;;;20.20;1.00;;;;;;6322691;22;20437;-85
2022/07/12 06:46:48;;;;;;;5.83;2.20;;;20.10;1.00;;;;;;6325403;22;20399;-80
2022/07/12 06:49:15;;;;;;;5.40;1.40;;;20.10;1.00;;;;;;6325850;22;20422;-81
2022/07/12 06:51:48;;;;;;;8.00;1.80;;;20.20;1.00;;;;;;6321832;22;20413;-82
2022/07/12 06:54:15;;;;;;;6.17;1.80;;;20.20;1.00;;;;;;6322334;22;21164;-81
2022/07/12 06:56:48;;;;;;;5.23;1.73;;;20.30;1.00;;;;;;6321662;22;20398;-82
2022/07/12 06:59:15;;;;;;;10.40;1.83;;;20.30;1.00;;;;;;6324280;22;20422;-81
2022/07/12 07:01:55;;;;;;;8.10;4.03;;;20.40;1.00;;;;;;6323774;22;20437;-85
2022/07/12 07:04:27;;;;;;;4.40;1.10;;;20.50;1.00;;;;;;6326100;22;20383;-85
2022/07/12 07:06:55;;;;;;;5.47;1.57;;;20.50;1.00;;;;;;6325983;22;20414;-82
2022/07/12 07:09:27;;;;;;;4.87;1.57;;;20.60;1.00;;;;;;6324359;22;20403;-85
2022/07/12 07:11:54;;;;;;;5.87;1.67;;;20.70;1.00;;;;;;6323742;22;20517;-79
2022/07/12 07:14:28;;;;;;;5.70;1.50;;;20.70;1.00;;;;;;6324473;22;20406;-85
2022/07/12 07:16:55;;;;;;;6.23;1.30;;;20.80;1.00;;;;;;6299020;22;20505;-79
2022/07/12 07:19:27;;;;;;;5.80;2.20;;;20.80;1.00;;;;;;6324412;22;20415;-79
2022/07/12 07:21:58;;;;;;;4.70;1.47;;;20.80;1.00;;;;;;6323460;22;20786;-82
2022/07/12 07:24:27;;;;;;;5.60;1.70;;;20.90;1.00;;;;;;6325850;22;20390;-82
2022/07/12 07:26:54;;;;;;;4.57;1.80;;;20.90;1.00;;;;;;6324646;22;21276;-85
2022/07/12 07:32:10;;;;;;;6.33;1.97;;;20.90;1.00;;;;;;6326600;22;20382;-81
2022/07/12 07:34:39;;;;;;;5.50;1.20;;;20.90;1.00;;;;;;6317372;22;20406;-81
2022/07/12 07:37:12;;;;;;;6.33;2.10;;;20.90;1.00;;;;;;6297741;22;20414;-82
2022/07/12 07:39:39;;;;;;;5.23;1.57;;;21.00;1.00;;;;;;6323538;22;20429;-81
2022/07/12 07:42:09;;;;;;;4.63;1.10;;;21.20;1.00;;;;;;6325130;22;20457;-81
2022/07/12 07:44:36;;;;;;;4.20;1.10;;;21.20;1.00;;;;;;6322838;22;20501;-79
2022/07/12 07:47:06;;;;;;;5.03;1.73;;;21.30;1.00;;;;;;6294708;22;20383;-78
2022/07/12 07:49:35;;;;;;;5.83;1.30;;;21.40;1.00;;;;;;6320166;22;20906;-81
2022/07/12 07:52:05;;;;;;;6.10;1.60;;;21.50;1.00;;;;;;6323237;22;20437;-80
2022/07/12 07:54:35;;;;;;;6.97;2.00;;;21.60;1.00;;;;;;6321226;22;20809;-80
2022/07/12 07:57:07;;;;;;;5.20;1.73;;;21.80;1.00;;;;;;6323601;22;20737;-82
2022/07/12 07:59:33;;;;;;;5.90;1.43;;;22.00;1.00;;;;;;6325586;22;21190;-85
2022/07/12 08:02:05;;;;;;;4.40;1.40;;;22.00;1.00;;;;;;6313974;22;20430;-83
2022/07/12 08:04:33;;;;;;;5.40;1.50;;;22.00;1.00;;;;;;6296085;22;20490;-85
2022/07/12 08:07:04;;;;;;;5.23;1.77;;;22.10;1.00;;;;;;6332070;22;20394;-84
2022/07/12 08:09:32;;;;;;;5.97;1.40;;;22.20;1.00;;;;;;6328156;22;20576;-81
2022/07/12 08:12:08;;;;;;;7.23;1.43;;;22.30;1.00;;;;;;6323679;22;20480;-81
2022/07/12 08:14:36;;;;;;;6.00;1.50;;;22.40;1.00;;;;;;6325568;22;20421;-82
2022/07/12 08:17:10;;;;;;;4.60;1.30;;;22.50;1.00;;;;;;6323953;22;20630;-80
2022/07/12 08:19:37;;;;;;;6.83;2.00;;;22.70;1.00;;;;;;6325577;22;20461;-86
2022/07/12 08:22:07;;;;;;;6.43;1.53;;;22.70;1.00;;;;;;6326769;22;20402;-84
2022/07/12 08:24:34;;;;;;;5.23;1.43;;;22.80;1.00;;;;;;6321765;22;20386;-84
2022/07/12 08:27:08;;;;;;;5.60;1.53;;;22.90;1.00;;;;;;6322487;22;20415;-82
2022/07/12 08:29:35;;;;;;;6.50;1.80;;;23.00;1.00;;;;;;6325086;22;20397;-85
2022/07/12 08:32:07;;;;;;;4.80;1.20;;;23.00;1.00;;;;;;6330778;22;20441;-83
2022/07/12 08:34:35;;;;;;;6.57;1.20;;;23.10;1.00;;;;;;6325609;22;20387;-80
2022/07/12 08:37:07;;;;;;;4.07;1.20;;;23.10;1.00;;;;;;6321798;22;20484;-79
2022/07/12 08:39:33;;;;;;;4.30;1.33;;;23.20;1.00;;;;;;6321534;22;20378;-83
2022/07/12 08:42:00;;;;;;;4.20;1.10;;;23.20;1.00;;;;;;6325365;22;20430;-85
2022/07/12 08:44:33;;;;;;;4.90;1.30;;;23.30;1.00;;;;;;6324325;22;20469;-79
2022/07/12 08:47:00;;;;;;;5.47;2.27;;;23.40;1.00;;;;;;6328945;22;20457;-83
2022/07/12 08:49:27;;;;;;;6.70;1.53;;;23.60;1.00;;;;;;6327352;22;20595;-81
2022/07/12 08:51:54;;;;;;;4.43;1.67;;;23.80;1.00;;;;;;6322448;22;20762;-84
2022/07/12 08:54:22;;;;;;;6.03;1.63;;;24.00;1.00;;;;;;6333885;22;20406;-84
2022/07/12 08:56:53;;;;;;;5.30;1.27;;;24.00;1.00;;;;;;6309677;22;20518;-85
2022/07/12 08:59:25;;;;;;;3.97;0.97;;;24.10;1.00;;;;;;6327377;22;20462;-82
2022/07/12 09:01:56;;;;;;;4.20;1.10;;;24.10;1.00;;;;;;6321935;22;20507;-82
2022/07/12 09:04:28;;;;;;;4.73;1.10;;;24.10;1.00;;;;;;6328675;22;20453;-80
2022/07/12 09:06:56;;;;;;;4.30;1.33;;;24.20;1.00;;;;;;6327027;22;20481;-84
2022/07/12 09:09:29;;;;;;;4.00;1.00;;;24.40;1.00;;;;;;6325287;22;20393;-81
2022/07/12 09:11:57;;;;;;;3.30;0.87;;;24.50;1.00;;;;;;6321236;22;20415;-81
2022/07/12 09:14:31;;;;;;;3.67;1.13;;;24.50;1.00;;;;;;6322249;22;20385;-80
2022/07/12 09:17:12;;;;;;;3.90;1.13;;;24.50;1.00;;;;;;6322914;22;20426;-80
2022/07/12 09:19:40;;;;;;;3.50;0.90;;;24.70;1.00;;;;;;6322675;22;20925;-81
2022/07/12 09:22:16;;;;;;;3.33;1.10;;;25.00;1.00;;;;;;6324165;22;20398;-82
2022/07/12 09:24:47;;;;;;;3.80;1.50;;;25.20;1.00;;;;;;6322376;22;20382;-82
2022/07/12 09:27:14;;;;;;;6.00;1.73;;;25.10;1.00;;;;;;6324395;22;20449;-82
2022/07/12 09:29:48;;;;;;;4.33;1.63;;;25.20;1.00;;;;;;6324776;22;20938;-85
2022/07/12 09:37:50;;;;;;;3.37;1.03;;;25.60;1.00;;;;;;6330673;22;20551;-85
2022/07/12 09:40:18;;;;;;;4.10;1.00;;;25.70;1.00;;;;;;6327607;22;20437;-85
2022/07/12 09:42:50;;;;;;;5.00;1.10;;;25.90;1.00;;;;;;6311688;22;21213;-82
2022/07/12 09:45:19;;;;;;;3.93;1.27;;;27.10;1.00;;;;;;6324982;22;21098;-82
2022/07/12 09:47:50;;;;;;;4.37;1.33;;;28.90;1.00;;;;;;6322619;22;20390;-83
2022/07/12 09:50:17;;;;;;;3.03;1.10;;;30.60;1.00;;;;;;6323437;22;20409;-81
2022/07/12 09:52:49;;;;;;;4.10;1.60;;;31.90;1.00;;;;;;6323179;22;20445;-82
2022/07/12 09:55:20;;;;;;;4.40;1.63;;;32.80;1.00;;;;;;6327531;22;20411;-85
2022/07/12 09:57:49;;;;;;;3.87;1.37;;;33.50;1.00;;;;;;6323988;22;20404;-80
2022/07/12 10:00:16;;;;;;;3.90;2.30;;;34.20;1.00;;;;;;6306977;22;20513;-85
2022/07/12 10:02:51;;;;;;;2.87;1.03;;;34.90;1.00;;;;;;6321961;22;20410;-81
2022/07/12 10:05:25;;;;;;;2.43;1.30;;;35.40;1.00;;;;;;6324534;22;20906;-82
2022/07/12 10:07:53;;;;;;;3.70;1.43;;;35.00;1.00;;;;;;6322081;22;20414;-80
2022/07/12 10:10:20;;;;;;;2.77;1.33;;;34.70;1.00;;;;;;6323705;22;20414;-86
2022/07/12 10:12:48;;;;;;;2.00;1.10;;;34.70;1.00;;;;;;6322819;22;21166;-80
2022/07/12 10:15:20;;;;;;;4.03;0.93;;;35.30;1.00;;;;;;6328849;22;20393;-81
2022/07/12 10:17:59;;;;;;;6.73;5.97;;;35.70;1.00;;;;;;6325392;22;20389;-80
2022/07/12 10:20:28;;;;;;;3.10;1.10;;;35.90;1.00;;;;;;6326600;22;20366;-83
2022/07/12 10:23:15;;;;;;;3.20;1.00;;;36.10;1.00;;;;;;6325852;22;20892;-82
2022/07/12 10:25:53;;;;;;;2.50;1.10;;;36.60;1.00;;;;;;6319991;22;20937;-83
2022/07/12 10:28:20;;;;;;;2.10;1.10;;;36.70;1.00;;;;;;6322788;22;20422;-81
2022/07/12 10:30:54;;;;;;;2.40;1.00;;;37.10;1.00;;;;;;6327246;22;20454;-86
2022/07/12 10:33:26;;;;;;;1.67;0.83;;;36.60;1.00;;;;;;6328302;22;20896;-81
2022/07/12 10:36:00;;;;;;;2.23;1.00;;;35.20;1.00;;;;;;6318896;22;20406;-81
2022/07/12 10:38:31;;;;;;;3.60;1.30;;;34.30;1.00;;;;;;6326500;22;20397;-86
2022/07/12 10:41:03;;;;;;;3.17;1.23;;;34.80;1.00;;;;;;6323666;22;20818;-80
2022/07/12 10:46:26;;;;;;;2.40;0.90;;;34.30;1.00;;;;;;6324212;22;20465;-86
2022/07/12 10:49:25;;;;;;;3.60;1.27;;;34.10;1.00;;;;;;6323219;22;20835;-83
2022/07/12 10:52:15;;;;;;;2.20;1.10;;;34.80;1.00;;;;;;6320992;22;20793;-83
2022/07/12 10:54:50;;;;;;;2.00;1.10;;;35.60;1.00;;;;;;6323821;22;21074;-82
2022/07/12 10:57:17;;;;;;;2.17;1.40;;;36.80;1.00;;;;;;6294148;22;20418;-81
2022/07/12 10:59:53;;;;;;;3.50;1.20;;;37.70;1.00;;;;;;6318902;22;20415;-82
2022/07/12 11:02:22;;;;;;;1.70;1.20;;;38.10;1.00;;;;;;6322400;22;20418;-84
2022/07/12 11:04:52;;;;;;;2.07;1.07;;;38.20;1.00;;;;;;6322919;22;20620;-85
2022/07/12 11:07:19;;;;;;;1.90;0.90;;;38.30;1.00;;;;;;6328827;22;20910;-82
2022/07/12 11:09:52;;;;;;;2.33;0.93;;;38.10;1.00;;;;;;6322252;22;20426;-83
2022/07/12 11:12:19;;;;;;;2.90;1.10;;;38.00;1.00;;;;;;6324564;22;20421;-81
2022/07/12 11:14:48;;;;;;;6.53;2.17;;;38.30;1.00;;;;;;6323200;22;20468;-82
2022/07/12 11:17:21;;;;;;;2.33;1.17;;;39.30;1.00;;;;;;6331676;22;20620;-86
2022/07/12 11:19:51;;;;;;;2.17;1.00;;;38.80;1.00;;;;;;6324450;22;20486;-81
2022/07/12 11:22:19;;;;;;;3.63;1.60;;;37.70;1.00;;;;;;6324521;22;20410;-83
2022/07/12 11:24:48;;;;;;;2.90;1.73;;;37.80;1.00;;;;;;6293502;22;20398;-81
2022/07/12 11:27:16;;;;;;;3.90;1.20;;;36.90;1.00;;;;;;6326373;22;20472;-87
2022/07/12 11:29:58;;;;;;;3.10;1.50;;;36.80;1.00;;;;;;6323333;22;20394;-82
2022/07/12 11:32:47;;;;;;;2.03;0.90;;;37.20;1.00;;;;;;6324615;22;20435;-82
2022/07/12 11:35:30;;;;;;;3.10;1.40;;;36.70;1.00;;;;;;6321919;22;20412;-81
2022/07/12 11:37:58;;;;;;;2.40;0.90;;;37.80;1.00;;;;;;6321537;22;20464;-81
2022/07/12 11:40:29;;;;;;;4.27;1.73;;;38.90;1.00;;;;;;6294287;22;20422;-81
2022/07/12 11:42:58;;;;;;;5.37;2.33;;;39.20;1.00;;;;;;6321787;22;20414;-85
2022/07/12 11:45:31;;;;;;;2.10;1.00;;;38.50;1.00;;;;;;6323662;22;20481;-82
2022/07/12 11:48:06;;;;;;;1.93;1.00;;;39.30;1.00;;;;;;6320842;22;20752;-82
2022/07/12 11:50:35;;;;;;;3.00;1.03;;;40.20;1.00;;;;;;6322013;22;20422;-82
2022/07/12 11:53:16;;;;;;;2.20;0.93;;;41.20;1.00;;;;;;6324077;22;20513;-82
2022/07/12 11:55:46;;;;;;;2.60;1.40;;;41.30;1.00;;;;;;6323162;22;20442;-86
2022/07/12 11:58:15;;;;;;;3.93;1.60;;;40.30;1.00;;;;;;6324045;22;20414;-86
2022/07/12 12:00:42;;;;;;;3.37;1.37;;;39.10;1.00;;;;;;6321710;22;20410;-87
2022/07/12 12:03:10;;;;;;;3.30;1.37;;;39.30;1.00;;;;;;6325710;22;20419;-84
2022/07/12 12:05:39;;;;;;;5.80;4.20;;;39.50;1.00;;;;;;6322381;22;20492;-87
2022/07/12 12:08:09;;;;;;;3.03;1.57;;;38.90;1.00;;;;;;6323808;22;20432;-86
2022/07/12 12:10:37;;;;;;;3.70;1.50;;;38.10;1.00;;;;;;6324863;22;20449;-87
2022/07/12 12:13:04;;;;;;;2.40;1.53;;;37.10;1.00;;;;;;6325383;22;21252;-86
2022/07/12 12:15:32;;;;;;;3.23;1.77;;;35.90;1.00;;;;;;6322574;22;20501;-84
2022/07/12 12:18:05;;;;;;;3.33;1.70;;;34.90;1.00;;;;;;6325168;22;20445;-86
2022/07/12 12:20:37;;;;;;;3.67;2.80;;;36.00;1.00;;;;;;6327503;22;20386;-85
2022/07/12 12:23:07;;;;;;;2.93;1.73;;;37.30;1.00;;;;;;6319707;22;20894;-82
2022/07/12 12:25:35;;;;;;;3.63;1.50;;;36.90;1.00;;;;;;6304670;22;20404;-80
2022/07/12 12:28:04;;;;;;;2.97;1.30;;;37.10;1.00;;;;;;6304353;22;20398;-81
2022/07/12 12:30:36;;;;;;;3.60;1.27;;;36.80;1.00;;;;;;6318608;22;20441;-81
2022/07/12 12:33:06;;;;;;;2.87;1.53;;;35.90;1.00;;;;;;6311591;22;20422;-81
2022/07/12 12:35:36;;;;;;;8.70;7.80;;;37.10;1.00;;;;;;6309932;22;20406;-88
2022/07/12 12:38:14;;;;;;;2.80;1.37;;;38.90;1.00;;;;;;6310484;22;20505;-84
2022/07/12 12:40:54;;;;;;;4.20;1.83;;;40.60;1.00;;;;;;6306953;22;20894;-82
2022/07/12 12:43:24;;;;;;;2.23;0.93;;;42.00;1.00;;;;;;6292849;22;20418;-82
2022/07/12 12:45:56;;;;;;;2.23;0.90;;;41.80;1.00;;;;;;6294589;22;20429;-83
2022/07/12 12:48:25;;;;;;;1.90;0.90;;;41.00;1.00;;;;;;6314275;22;20387;-81
2022/07/12 12:51:03;;;;;;;3.00;1.50;;;41.20;1.00;;;;;;6306250;22;20561;-82
2022/07/12 12:53:34;;;;;;;2.43;1.20;;;41.70;1.00;;;;;;6318039;22;20382;-83
2022/07/12 12:56:02;;;;;;;2.53;1.10;;;42.20;1.00;;;;;;6299714;22;20426;-82
2022/07/12 12:58:38;;;;;;;2.93;1.30;;;42.80;1.00;;;;;;6299735;22;20411;-82
2022/07/12 13:01:06;;;;;;;2.10;0.77;;;42.60;1.00;;;;;;6289246;22;20432;-81
2022/07/12 13:03:35;;;;;;;4.13;1.17;;;42.60;1.00;;;;;;6309132;22;20386;-85
2022/07/12 13:06:02;;;;;;;3.20;1.63;;;43.20;1.00;;;;;;6326075;22;20544;-85
2022/07/12 13:08:34;;;;;;;2.43;1.33;;;43.40;1.00;;;;;;6324870;22;20417;-87
2022/07/12 13:11:22;;;;;;;1.90;0.83;;;43.30;1.00;;;;;;6293560;22;20409;-82
2022/07/12 13:13:50;;;;;;;1.83;0.70;;;44.00;1.00;;;;;;6308225;22;20441;-82
2022/07/12 13:16:20;;;;;;;2.27;1.00;;;44.20;1.00;;;;;;6285042;22;20469;-84
2022/07/12 13:18:47;;;;;;;5.00;1.07;;;44.30;1.00;;;;;;6316590;22;20390;-82
2022/07/12 13:21:17;;;;;;;2.47;1.47;;;44.10;1.00;;;;;;6304766;22;20398;-80
2022/07/12 13:23:45;;;;;;;2.90;1.23;;;43.00;1.00;;;;;;6290364;22;20513;-82
2022/07/12 13:26:15;;;;;;;3.50;1.27;;;41.30;1.00;;;;;;6273891;22;20386;-81